createdAt,value
2022-11-29T00:00:39.367Z,99101.38
2022-11-29T00:03:05.791Z,99092.72
2022-11-29T00:05:35.490Z,99091.00
2022-11-29T00:08:02.028Z,99095.28
2022-11-29T00:10:28.433Z,99092.56
2022-11-29T00:12:54.852Z,99098.88
2022-11-29T00:15:21.241Z,99091.00
2022-11-29T00:17:47.651Z,99094.34
2022-11-29T00:20:14.105Z,99100.50
2022-11-29T00:22:40.527Z,99101.09
2022-11-29T00:25:07.179Z,99105.38
2022-11-29T00:27:33.694Z,99094.34
2022-11-29T00:30:00.122Z,99093.56
2022-11-29T00:32:26.539Z,99092.72
2022-11-29T00:34:53.122Z,99091.00
2022-11-29T00:37:19.494Z,99098.75
2022-11-29T00:39:45.876Z,99103.94
2022-11-29T00:42:12.310Z,99102.81
2022-11-29T00:44:38.732Z,99099.63
2022-11-29T00:47:05.136Z,99101.25
2022-11-29T00:49:31.607Z,99099.72
2022-11-29T00:51:58.070Z,99105.47
2022-11-29T00:54:24.508Z,99103.13
2022-11-29T00:56:50.939Z,99107.44
2022-11-29T00:59:17.353Z,99111.47
2022-11-29T01:01:43.942Z,99106.66
2022-11-29T01:04:10.411Z,99108.97
2022-11-29T01:06:36.899Z,99108.25
2022-11-29T01:09:03.805Z,99112.50
2022-11-29T01:11:30.326Z,99113.38
2022-11-29T01:13:58.835Z,99106.50
2022-11-29T01:16:26.122Z,99111.47
2022-11-29T01:18:52.748Z,99114.97
2022-11-29T01:21:21.797Z,99111.78
2022-11-29T01:23:49.407Z,99117.63
2022-11-29T01:26:21.283Z,99116.91
2022-11-29T01:28:49.025Z,99118.47
2022-11-29T01:31:17.661Z,99115.94
2022-11-29T01:33:44.148Z,99126.34
2022-11-29T01:36:12.798Z,99122.03
2022-11-29T01:38:39.806Z,99128.03
2022-11-29T01:41:15.083Z,99128.72
2022-11-29T01:43:59.074Z,99122.50
2022-11-29T01:46:27.167Z,99120.97
2022-11-29T01:48:56.162Z,99127.47
2022-11-29T01:51:22.694Z,99128.72
2022-11-29T01:53:49.232Z,99130.50
2022-11-29T01:56:16.198Z,99126.09
2022-11-29T01:58:44.014Z,99125.22
2022-11-29T02:01:11.153Z,99119.22
2022-11-29T02:03:37.786Z,99119.16
2022-11-29T02:06:05.146Z,99127.03
2022-11-29T02:08:39.462Z,99131.13
2022-11-29T02:11:43.192Z,99126.16
2022-11-29T02:14:28.184Z,99124.91
2022-11-29T02:16:56.655Z,99126.88
2022-11-29T02:19:41.623Z,99130.34
2022-11-29T02:22:13.408Z,99124.28
2022-11-29T02:24:46.251Z,99129.44
2022-11-29T02:27:41.006Z,99128.56
2022-11-29T02:30:09.607Z,99129.38
2022-11-29T02:32:42.046Z,99130.28
2022-11-29T02:35:46.066Z,99127.72
2022-11-29T02:38:30.558Z,99130.34
2022-11-29T02:41:15.812Z,99134.09
2022-11-29T02:44:40.096Z,99138.59
2022-11-29T02:47:31.616Z,99139.47
2022-11-29T02:50:07.184Z,99142.81
2022-11-29T02:52:55.492Z,99139.47
2022-11-29T02:55:38.480Z,99144.59
2022-11-29T02:58:19.654Z,99143.53
2022-11-29T03:01:07.994Z,99139.94
2022-11-29T03:03:43.627Z,99144.34
2022-11-29T03:06:34.905Z,99139.75
2022-11-29T03:09:09.503Z,99149.13
2022-11-29T03:12:00.381Z,99147.69
2022-11-29T03:14:29.041Z,99153.69
2022-11-29T03:16:55.330Z,99149.28
2022-11-29T03:19:43.598Z,99152.81
2022-11-29T03:22:12.937Z,99152.81
2022-11-29T03:25:18.265Z,99151.13
2022-11-29T03:27:54.709Z,99151.91
2022-11-29T03:30:21.870Z,99155.31
2022-11-29T03:32:55.474Z,99156.97
2022-11-29T03:36:13.349Z,99152.66
2022-11-29T03:38:45.663Z,99155.66
2022-11-29T03:41:18.184Z,99155.63
2022-11-29T03:44:09.678Z,99163.44
2022-11-29T03:47:04.848Z,99160.72
2022-11-29T03:49:54.726Z,99161.19
2022-11-29T03:52:26.746Z,99155.34
2022-11-29T03:55:08.378Z,99152.69
2022-11-29T03:57:45.458Z,99153.25
2022-11-29T04:00:13.325Z,99154.84
2022-11-29T04:02:39.690Z,99155.19
2022-11-29T04:05:43.976Z,99152.63
2022-11-29T04:08:52.477Z,99155.19
2022-11-29T04:11:55.816Z,99158.38
2022-11-29T04:14:56.347Z,99157.41
2022-11-29T04:17:47.787Z,99170.19
2022-11-29T04:20:47.879Z,99169.19
2022-11-29T04:23:46.594Z,99168.44
2022-11-29T04:26:37.955Z,99179.72
2022-11-29T04:29:35.580Z,99180.69
2022-11-29T04:32:39.563Z,99180.34
2022-11-29T04:35:31.374Z,99187.41
2022-11-29T04:38:19.262Z,99186.09
2022-11-29T04:41:26.011Z,99187.88
2022-11-29T04:44:10.660Z,99183.63
2022-11-29T04:46:42.936Z,99188.81
2022-11-29T04:49:30.719Z,99189.63
2022-11-29T04:52:19.502Z,99201.38
2022-11-29T04:55:30.676Z,99199.50
2022-11-29T04:58:11.156Z,99208.06
2022-11-29T05:00:51.999Z,99210.00
2022-11-29T05:03:31.464Z,99210.16
2022-11-29T05:06:10.604Z,99221.66
2022-11-29T05:08:55.972Z,99224.22
2022-11-29T05:11:27.070Z,99232.16
2022-11-29T05:14:34.309Z,99232.22
2022-11-29T05:17:38.318Z,99240.69
2022-11-29T05:20:18.291Z,99245.13
2022-11-29T05:22:50.751Z,99242.38
2022-11-29T05:25:23.286Z,99252.63
2022-11-29T05:28:11.002Z,99248.34
2022-11-29T05:30:46.844Z,99252.41
2022-11-29T05:33:42.488Z,99249.41
2022-11-29T05:36:24.960Z,99252.63
2022-11-29T05:39:18.075Z,99252.69
2022-11-29T05:41:50.508Z,99258.16
2022-11-29T05:44:24.783Z,99259.31
2022-11-29T05:46:59.555Z,99265.13
2022-11-29T05:49:31.309Z,99262.63
2022-11-29T05:52:20.982Z,99267.59
2022-11-29T05:55:16.184Z,99261.69
2022-11-29T05:57:49.917Z,99263.28
2022-11-29T06:00:18.513Z,99265.19
2022-11-29T06:03:07.482Z,99276.25
2022-11-29T06:05:51.162Z,99274.84
2022-11-29T06:08:32.817Z,99276.84
2022-11-29T06:11:18.154Z,99287.16
2022-11-29T06:13:55.514Z,99284.59
2022-11-29T06:16:33.843Z,99292.25
2022-11-29T06:19:18.596Z,99292.47
2022-11-29T06:22:20.815Z,99296.88
2022-11-29T06:25:13.109Z,99294.91
2022-11-29T06:28:09.948Z,99299.34
2022-11-29T06:31:14.673Z,99290.34
2022-11-29T06:33:47.879Z,99301.69
2022-11-29T06:36:28.020Z,99294.75
2022-11-29T06:38:54.533Z,99308.66
2022-11-29T06:41:23.210Z,99305.75
2022-11-29T06:43:50.169Z,99310.78
2022-11-29T06:46:29.202Z,99318.28
2022-11-29T06:49:17.737Z,99314.84
2022-11-29T06:51:56.371Z,99309.19
2022-11-29T06:54:47.706Z,99319.69
2022-11-29T06:57:48.059Z,99319.69
2022-11-29T07:00:21.360Z,99317.66
2022-11-29T07:03:22.972Z,99333.88
2022-11-29T07:05:49.688Z,99324.72
2022-11-29T07:08:18.868Z,99322.75
2022-11-29T07:10:49.643Z,99327.03
2022-11-29T07:13:17.897Z,99322.75
2022-11-29T07:15:58.892Z,99331.06
2022-11-29T07:18:38.651Z,99331.31
2022-11-29T07:21:16.437Z,99331.31
2022-11-29T07:23:53.666Z,99332.13
2022-11-29T07:26:30.246Z,99332.75
2022-11-29T07:29:05.770Z,99335.97
2022-11-29T07:31:54.056Z,99337.03
2022-11-29T07:34:35.489Z,99340.41
2022-11-29T07:37:17.223Z,99352.38
2022-11-29T07:40:05.615Z,99343.75
2022-11-29T07:42:31.969Z,99345.34
2022-11-29T07:45:28.761Z,99352.19
2022-11-29T07:47:55.273Z,99351.22
2022-11-29T07:50:21.942Z,99353.78
2022-11-29T07:52:48.490Z,99356.94
2022-11-29T07:55:19.145Z,99364.78
2022-11-29T07:57:47.167Z,99367.19
2022-11-29T08:00:14.622Z,99364.25
2022-11-29T08:02:41.602Z,99367.34
2022-11-29T08:05:08.792Z,99364.97
2022-11-29T08:07:39.916Z,99364.38
2022-11-29T08:10:11.790Z,99366.03
2022-11-29T08:12:46.187Z,99377.75
2022-11-29T08:15:13.333Z,99389.22
2022-11-29T08:17:39.894Z,99387.31
2022-11-29T08:20:07.333Z,99384.03
2022-11-29T08:22:33.934Z,99391.72
2022-11-29T08:25:00.337Z,99388.97
2022-11-29T08:27:27.316Z,99394.34
2022-11-29T08:29:53.827Z,99391.19
2022-11-29T08:32:20.235Z,99394.63
2022-11-29T08:34:47.006Z,99402.47
2022-11-29T08:37:13.677Z,99404.25
2022-11-29T08:39:40.104Z,99399.31
2022-11-29T08:42:06.571Z,99408.81
2022-11-29T08:44:32.986Z,99403.72
2022-11-29T08:47:17.939Z,99408.94
2022-11-29T08:50:02.723Z,99410.59
2022-11-29T08:52:48.716Z,99409.72
2022-11-29T08:55:15.929Z,99410.59
2022-11-29T08:57:42.492Z,99407.63
2022-11-29T09:00:10.331Z,99411.31
2022-11-29T09:02:37.286Z,99412.28
2022-11-29T09:05:05.309Z,99416.94
2022-11-29T09:07:31.799Z,99411.50
2022-11-29T09:09:58.453Z,99418.91
2022-11-29T09:12:24.948Z,99416.78
2022-11-29T09:14:51.329Z,99417.31
2022-11-29T09:17:17.723Z,99425.06
2022-11-29T09:19:44.165Z,99423.56
2022-11-29T09:22:10.639Z,99423.03
2022-11-29T09:24:37.086Z,99426.47
2022-11-29T09:27:03.779Z,99429.13
2022-11-29T09:29:30.206Z,99434.25
2022-11-29T09:31:56.712Z,99438.59
2022-11-29T09:34:23.217Z,99439.81
2022-11-29T09:36:49.752Z,99441.88
2022-11-29T09:39:16.238Z,99444.97
2022-11-29T09:41:49.003Z,99450.38
2022-11-29T09:44:48.119Z,99449.03
2022-11-29T09:47:36.442Z,99446.03
2022-11-29T09:50:30.702Z,99438.66
2022-11-29T09:53:17.516Z,99447.03
2022-11-29T09:55:52.787Z,99443.22
2022-11-29T09:58:22.359Z,99454.69
2022-11-29T10:00:52.036Z,99440.66
2022-11-29T10:03:33.901Z,99453.19
2022-11-29T10:06:14.180Z,99451.84
2022-11-29T10:08:43.942Z,99449.28
2022-11-29T10:11:17.983Z,99455.47
2022-11-29T10:14:09.129Z,99455.31
2022-11-29T10:16:46.726Z,99452.28
2022-11-29T10:19:33.392Z,99454.50
2022-11-29T10:22:05.899Z,99456.81
2022-11-29T10:24:33.746Z,99457.69
2022-11-29T10:27:00.275Z,99453.34
2022-11-29T10:29:26.786Z,99453.78
2022-11-29T10:31:56.782Z,99454.13
2022-11-29T10:34:25.484Z,99451.84
2022-11-29T10:36:59.867Z,99458.47
2022-11-29T10:39:33.763Z,99455.13
2022-11-29T10:42:01.558Z,99453.31
2022-11-29T10:44:28.286Z,99455.31
2022-11-29T10:46:55.999Z,99455.59
2022-11-29T10:49:27.475Z,99460.78
2022-11-29T10:51:53.922Z,99461.03
2022-11-29T10:54:38.732Z,99463.50
2022-11-29T10:57:12.755Z,99458.81
2022-11-29T10:59:39.144Z,99461.38
2022-11-29T11:02:17.308Z,99460.66
2022-11-29T11:04:46.483Z,99448.97
2022-11-29T11:07:24.055Z,99448.97
2022-11-29T11:09:53.013Z,99448.19
2022-11-29T11:12:21.087Z,99449.47
2022-11-29T11:14:48.256Z,99445.38
2022-11-29T11:17:26.331Z,99452.59
2022-11-29T11:20:10.024Z,99448.19
2022-11-29T11:22:39.765Z,99447.72
2022-11-29T11:25:24.487Z,99446.94
2022-11-29T11:27:51.124Z,99444.59
2022-11-29T11:30:35.720Z,99450.75
2022-11-29T11:33:14.280Z,99449.09
2022-11-29T11:35:40.859Z,99447.25
2022-11-29T11:38:15.622Z,99446.69
2022-11-29T11:40:42.176Z,99443.47
2022-11-29T11:43:18.956Z,99451.28
2022-11-29T11:45:51.990Z,99453.00
2022-11-29T11:48:19.144Z,99457.28
2022-11-29T11:50:54.286Z,99456.72
2022-11-29T11:53:24.495Z,99454.00
2022-11-29T11:56:00.900Z,99451.72
2022-11-29T11:58:29.682Z,99460.41
2022-11-29T12:01:12.213Z,99458.63
2022-11-29T12:04:06.601Z,99457.22
2022-11-29T12:06:52.136Z,99460.75
2022-11-29T12:09:22.893Z,99457.47
2022-11-29T12:12:14.360Z,99462.34
2022-11-29T12:14:43.716Z,99450.81
2022-11-29T12:18:05.746Z,99452.88
2022-11-29T12:20:35.037Z,99455.53
2022-11-29T12:23:31.395Z,99454.81
2022-11-29T12:26:55.216Z,99463.53
2022-11-29T12:29:14.062Z,99463.59
2022-11-29T12:31:55.962Z,99463.00
2022-11-29T12:34:43.163Z,99468.75
2022-11-29T12:37:40.381Z,99463.41
2022-11-29T12:40:07.162Z,99473.88
2022-11-29T12:42:48.473Z,99477.25
2022-11-29T12:45:40.760Z,99465.38
2022-11-29T12:48:33.187Z,99471.56
2022-11-29T12:51:32.088Z,99475.16
2022-11-29T12:54:16.279Z,99465.78
2022-11-29T12:57:12.051Z,99467.16
2022-11-29T12:59:50.612Z,99468.59
2022-11-29T13:02:43.482Z,99472.69
2022-11-29T13:05:19.005Z,99481.56
2022-11-29T13:07:59.852Z,99484.47
2022-11-29T13:10:50.982Z,99485.03
2022-11-29T13:13:35.681Z,99482.25
2022-11-29T13:16:31.129Z,99492.66
2022-11-29T13:19:35.333Z,99486.81
2022-11-29T13:22:15.527Z,99489.44
2022-11-29T13:24:44.584Z,99494.00
2022-11-29T13:27:33.704Z,99496.44
2022-11-29T13:30:01.797Z,99495.53
2022-11-29T13:32:36.606Z,99496.09
2022-11-29T13:35:17.126Z,99497.81
2022-11-29T13:37:53.552Z,99503.97
2022-11-29T13:40:45.753Z,99504.69
2022-11-29T13:43:36.657Z,99500.69
2022-11-29T13:46:15.224Z,99502.84
2022-11-29T13:48:53.258Z,99503.72
2022-11-29T13:51:26.051Z,99507.72
2022-11-29T13:53:53.543Z,99506.44
2022-11-29T13:56:36.336Z,99509.97
2022-11-29T13:59:08.440Z,99515.09
2022-11-29T14:01:44.681Z,99512.63
2022-11-29T14:04:33.233Z,99511.56
2022-11-29T14:07:08.628Z,99507.72
2022-11-29T14:09:51.257Z,99511.28
2022-11-29T14:12:36.554Z,99513.44
2022-11-29T14:15:15.080Z,99513.59
2022-11-29T14:17:53.529Z,99515.84
2022-11-29T14:20:22.885Z,99512.53
2022-11-29T14:23:04.666Z,99509.78
2022-11-29T14:28:23.064Z,99507.63
2022-11-29T14:30:53.379Z,99507.53
2022-11-29T14:33:28.875Z,99507.88
2022-11-29T14:36:07.529Z,99512.06
2022-11-29T14:39:01.955Z,99504.81
2022-11-29T14:41:49.852Z,99510.09
2022-11-29T14:44:24.221Z,99512.06
2022-11-29T14:47:00.985Z,99511.88
2022-11-29T14:49:28.686Z,99515.44
2022-11-29T14:52:13.526Z,99517.69
2022-11-29T14:54:54.646Z,99519.66
2022-11-29T14:58:06.471Z,99522.34
2022-11-29T15:00:32.862Z,99524.91
2022-11-29T15:03:09.121Z,99530.63
2022-11-29T15:06:01.450Z,99530.31
2022-11-29T15:08:55.383Z,99531.88
2022-11-29T15:11:36.628Z,99537.03
2022-11-29T15:14:12.318Z,99537.91
2022-11-29T15:17:16.306Z,99535.28
2022-11-29T15:20:20.492Z,99538.38
2022-11-29T15:22:59.536Z,99550.72
2022-11-29T15:25:28.402Z,99549.69
2022-11-29T15:27:57.234Z,99551.63
2022-11-29T15:30:41.670Z,99547.13
2022-11-29T15:33:19.287Z,99548.91
2022-11-29T15:35:54.559Z,99547.22
2022-11-29T15:38:22.305Z,99549.69
2022-11-29T15:40:53.984Z,99543.34
2022-11-29T15:43:22.418Z,99546.81
2022-11-29T15:45:56.997Z,99550.31
2022-11-29T15:48:30.339Z,99550.16
2022-11-29T15:51:02.008Z,99552.66
2022-11-29T15:53:39.647Z,99548.94
2022-11-29T15:56:13.908Z,99554.00
2022-11-29T15:58:40.509Z,99562.56
2022-11-29T16:01:07.306Z,99557.66
2022-11-29T16:03:35.821Z,99553.41
2022-11-29T16:06:29.635Z,99562.53
2022-11-29T16:08:56.038Z,99561.72
2022-11-29T16:11:24.869Z,99574.56
2022-11-29T16:14:22.769Z,99575.72
2022-11-29T16:16:52.596Z,99575.53
2022-11-29T16:19:25.005Z,99573.78
2022-11-29T16:22:10.185Z,99576.25
2022-11-29T16:24:38.211Z,99575.34
2022-11-29T16:27:06.072Z,99582.63
2022-11-29T16:29:37.483Z,99578.38
2022-11-29T16:32:24.527Z,99581.75
2022-11-29T16:34:51.248Z,99576.97
2022-11-29T16:37:21.674Z,99579.09
2022-11-29T16:39:50.662Z,99584.16
2022-11-29T16:42:25.798Z,99583.78
2022-11-29T16:45:01.675Z,99579.63
2022-11-29T16:47:46.371Z,99590.66
2022-11-29T16:50:16.259Z,99595.00
2022-11-29T16:52:42.791Z,99586.16
2022-11-29T16:55:09.263Z,99593.41
2022-11-29T16:57:35.978Z,99581.75
2022-11-29T17:00:10.172Z,99593.41
2022-11-29T17:02:36.621Z,99598.47
2022-11-29T17:05:03.208Z,99599.25
2022-11-29T17:07:31.602Z,99601.81
2022-11-29T17:09:58.554Z,99604.19
2022-11-29T17:12:25.055Z,99604.53
2022-11-29T17:14:51.537Z,99602.69
2022-11-29T17:17:18.811Z,99598.34
2022-11-29T17:19:45.363Z,99604.38
2022-11-29T17:22:12.439Z,99602.41
2022-11-29T17:24:43.400Z,99601.75
2022-11-29T17:27:12.904Z,99602.41
2022-11-29T17:29:39.298Z,99619.72
2022-11-29T17:32:05.789Z,99610.47
2022-11-29T17:34:33.239Z,99611.78
2022-11-29T17:36:59.850Z,99616.03
2022-11-29T17:39:26.259Z,99609.56
2022-11-29T17:41:52.652Z,99614.69
2022-11-29T17:44:19.114Z,99617.09
2022-11-29T17:46:45.552Z,99612.47
2022-11-29T17:49:11.970Z,99611.84
2022-11-29T17:51:55.473Z,99620.25
2022-11-29T17:54:22.570Z,99618.47
2022-11-29T17:56:49.527Z,99617.34
2022-11-29T17:59:15.924Z,99624.31
2022-11-29T18:01:42.389Z,99628.66
2022-11-29T18:04:08.856Z,99626.78
2022-11-29T18:06:40.027Z,99631.66
2022-11-29T18:09:08.395Z,99637.91
2022-11-29T18:11:46.933Z,99633.50
2022-11-29T18:14:15.819Z,99641.28
2022-11-29T18:16:42.816Z,99639.66
2022-11-29T18:19:12.233Z,99637.25
2022-11-29T18:21:39.126Z,99643.56
2022-11-29T18:24:06.657Z,99648.13
2022-11-29T18:26:34.518Z,99640.97
2022-11-29T18:29:01.355Z,99649.09
2022-11-29T18:31:30.254Z,99648.75
2022-11-29T18:33:58.766Z,99649.34
2022-11-29T18:36:28.024Z,99651.47
2022-11-29T18:39:00.626Z,99647.84
2022-11-29T18:41:29.614Z,99655.59
2022-11-29T18:43:58.857Z,99663.09
2022-11-29T18:46:25.879Z,99663.81
2022-11-29T18:48:52.914Z,99666.97
2022-11-29T18:51:20.321Z,99673.94
2022-11-29T18:53:46.981Z,99676.50
2022-11-29T18:56:15.695Z,99677.31
2022-11-29T18:58:43.203Z,99682.50
2022-11-29T19:01:12.072Z,99677.31
2022-11-29T19:03:40.886Z,99677.91
2022-11-29T19:06:10.961Z,99688.53
2022-11-29T19:08:37.751Z,99681.63
2022-11-29T19:11:05.871Z,99681.25
2022-11-29T19:13:32.611Z,99682.16
2022-11-29T19:15:59.446Z,99680.66
2022-11-29T19:18:25.997Z,99684.41
2022-11-29T19:20:53.538Z,99688.75
2022-11-29T19:23:21.120Z,99689.94
2022-11-29T19:25:48.015Z,99691.31
2022-11-29T19:28:14.640Z,99689.88
2022-11-29T19:30:41.151Z,99686.72
2022-11-29T19:33:07.644Z,99685.66
2022-11-29T19:35:34.758Z,99686.72
2022-11-29T19:38:01.114Z,99687.38
2022-11-29T19:40:27.776Z,99688.38
2022-11-29T19:42:54.218Z,99690.38
2022-11-29T19:45:21.769Z,99694.09
2022-11-29T19:47:48.197Z,99698.84
2022-11-29T19:50:14.605Z,99688.00
2022-11-29T19:52:40.973Z,99699.81
2022-11-29T19:55:07.659Z,99697.44
2022-11-29T19:57:34.034Z,99695.50
2022-11-29T20:00:00.503Z,99696.88
2022-11-29T20:02:27.783Z,99701.28
2022-11-29T20:04:54.230Z,99704.97
2022-11-29T20:07:20.659Z,99700.63
2022-11-29T20:09:49.201Z,99703.81
2022-11-29T20:12:15.661Z,99707.72
2022-11-29T20:14:42.071Z,99701.25
2022-11-29T20:17:08.493Z,99708.47
2022-11-29T20:19:34.950Z,99700.84
2022-11-29T20:22:04.003Z,99715.06
2022-11-29T20:24:35.328Z,99713.41
2022-11-29T20:27:05.548Z,99713.72
2022-11-29T20:29:33.029Z,99719.69
2022-11-29T20:31:59.475Z,99719.31
2022-11-29T20:34:25.963Z,99719.88
2022-11-29T20:37:10.709Z,99724.34
2022-11-29T20:39:53.928Z,99721.66
2022-11-29T20:42:32.479Z,99728.19
2022-11-29T20:45:03.935Z,99732.91
2022-11-29T20:47:40.830Z,99732.28
2022-11-29T20:50:07.913Z,99728.75
2022-11-29T20:52:46.744Z,99726.41
2022-11-29T20:55:13.322Z,99727.19
2022-11-29T20:57:39.711Z,99727.75
2022-11-29T21:00:08.332Z,99731.78
2022-11-29T21:02:34.777Z,99728.94
2022-11-29T21:05:01.150Z,99731.19
2022-11-29T21:07:27.614Z,99732.78
2022-11-29T21:09:59.496Z,99734.25
2022-11-29T21:12:28.379Z,99728.53
2022-11-29T21:14:55.005Z,99732.09
2022-11-29T21:17:22.462Z,99741.22
2022-11-29T21:19:49.138Z,99737.19
2022-11-29T21:22:52.701Z,99745.06
2022-11-29T21:25:25.060Z,99741.31
2022-11-29T21:27:52.575Z,99746.53
2022-11-29T21:30:23.312Z,99739.16
2022-11-29T21:32:50.214Z,99733.06
2022-11-29T21:35:17.174Z,99729.72
2022-11-29T21:37:44.214Z,99739.16
2022-11-29T21:40:11.649Z,99736.81
2022-11-29T21:42:38.016Z,99739.38
2022-11-29T21:45:08.219Z,99737.00
2022-11-29T21:47:39.829Z,99736.13
2022-11-29T21:50:06.872Z,99731.69
2022-11-29T21:52:33.293Z,99731.59
2022-11-29T21:54:59.716Z,99732.84
2022-11-29T21:57:26.088Z,99732.06
2022-11-29T21:59:52.977Z,99732.56
2022-11-29T22:02:19.513Z,99732.66
2022-11-29T22:04:46.332Z,99734.69
2022-11-29T22:07:13.956Z,99738.91
2022-11-29T22:09:40.477Z,99736.38
2022-11-29T22:12:32.034Z,99734.31
2022-11-29T22:14:53.407Z,99739.28
2022-11-29T22:17:19.838Z,99741.66
2022-11-29T22:19:46.227Z,99733.81
2022-11-29T22:22:13.204Z,99743.81
2022-11-29T22:24:39.594Z,99739.41
2022-11-29T22:27:06.022Z,99747.06
2022-11-29T22:29:32.469Z,99742.03
2022-11-29T22:31:59.487Z,99743.94
2022-11-29T22:34:26.723Z,99736.06
2022-11-29T22:36:53.217Z,99746.06
2022-11-29T22:39:19.635Z,99740.88
2022-11-29T22:41:52.287Z,99750.09
2022-11-29T22:44:20.280Z,99745.78
2022-11-29T22:46:46.732Z,99744.88
2022-11-29T22:49:13.228Z,99747.91
2022-11-29T22:51:39.967Z,99758.13
2022-11-29T22:54:08.587Z,99755.69
2022-11-29T22:56:39.823Z,99749.00
2022-11-29T22:59:06.581Z,99757.91
2022-11-29T23:01:34.876Z,99759.50
2022-11-29T23:04:04.200Z,99761.34
2022-11-29T23:06:33.477Z,99756.03
2022-11-29T23:09:05.167Z,99752.88
2022-11-29T23:11:32.153Z,99760.63
2022-11-29T23:13:58.628Z,99760.63
2022-11-29T23:16:27.127Z,99755.72
2022-11-29T23:18:54.876Z,99765.09
2022-11-29T23:21:23.503Z,99762.38
2022-11-29T23:23:55.816Z,99762.38
2022-11-29T23:26:28.963Z,99769.72
2022-11-29T23:28:55.686Z,99762.63
2022-11-29T23:31:23.371Z,99768.50
2022-11-29T23:33:50.022Z,99764.44
2022-11-29T23:36:17.034Z,99757.13
2022-11-29T23:38:43.526Z,99761.94
2022-11-29T23:41:11.495Z,99765.28
2022-11-29T23:43:40.348Z,99765.81
2022-11-29T23:46:16.233Z,99760.94
2022-11-29T23:48:43.487Z,99755.41
2022-11-29T23:51:10.282Z,99760.31
2022-11-29T23:53:36.722Z,99756.31
2022-11-29T23:56:06.201Z,99758.34
2022-11-29T23:58:33.554Z,99762.75
